createdAt,value
2018-10-18T00:02:17.440Z,10.27
2018-10-18T00:04:45.490Z,10.28
2018-10-18T00:07:12.921Z,10.31
2018-10-18T00:09:40.973Z,10.38
2018-10-18T00:14:58.456Z,10.45
2018-10-18T00:17:33.167Z,10.40
2018-10-18T00:22:53.030Z,10.34
2018-10-18T00:25:22.448Z,10.39
2018-10-18T00:27:49.941Z,10.42
2018-10-18T00:30:17.547Z,10.41
2018-10-18T00:32:45.058Z,10.38
2018-10-18T00:35:14.977Z,10.30
2018-10-18T00:37:42.677Z,10.30
2018-10-18T00:40:11.463Z,10.33
2018-10-18T00:42:39.048Z,10.37
2018-10-18T00:45:07.125Z,10.35
2018-10-18T00:47:34.727Z,10.37
2018-10-18T00:50:05.542Z,10.37
2018-10-18T00:52:36.416Z,10.35
2018-10-18T00:55:05.185Z,10.34
2018-10-18T00:57:34.690Z,10.39
2018-10-18T01:00:04.764Z,10.49
2018-10-18T01:02:32.242Z,10.45
2018-10-18T01:05:01.342Z,10.54
2018-10-18T01:07:29.342Z,10.59
2018-10-18T01:09:56.743Z,10.64
2018-10-18T01:12:24.907Z,10.62
2018-10-18T01:14:52.251Z,10.64
2018-10-18T01:17:19.591Z,10.64
2018-10-18T01:19:47.719Z,10.64
2018-10-18T01:22:16.755Z,10.62
2018-10-18T01:24:45.222Z,10.54
2018-10-18T01:27:12.606Z,10.42
2018-10-18T01:29:39.962Z,10.30
2018-10-18T01:32:07.507Z,10.21
2018-10-18T01:34:35.475Z,10.09
2018-10-18T01:37:04.538Z,10.02
2018-10-18T01:39:34.177Z,9.93
2018-10-18T01:42:01.937Z,9.88
2018-10-18T01:44:29.244Z,9.71
2018-10-18T01:46:56.615Z,9.64
2018-10-18T01:49:24.174Z,9.60
2018-10-18T01:52:14.792Z,9.56
2018-10-18T01:54:45.195Z,9.60
2018-10-18T01:57:15.798Z,9.62
2018-10-18T01:59:43.338Z,9.60
2018-10-18T02:02:10.829Z,9.56
2018-10-18T02:04:39.328Z,9.55
2018-10-18T02:07:07.027Z,9.53
2018-10-18T02:09:34.583Z,9.49
2018-10-18T02:12:02.439Z,9.54
2018-10-18T02:14:31.073Z,9.55
2018-10-18T02:16:58.656Z,9.54
2018-10-18T02:19:26.187Z,9.60
2018-10-18T02:21:54.415Z,9.65
2018-10-18T02:24:23.891Z,9.80
2018-10-18T02:26:54.165Z,9.84
2018-10-18T02:29:23.662Z,9.78
2018-10-18T02:31:53.464Z,9.83
2018-10-18T02:34:22.810Z,9.85
2018-10-18T02:36:50.534Z,9.91
2018-10-18T02:39:18.073Z,9.96
2018-10-18T02:41:46.199Z,9.99
2018-10-18T02:44:14.235Z,9.95
2018-10-18T02:46:41.800Z,9.91
2018-10-18T02:49:09.517Z,9.92
2018-10-18T02:51:36.950Z,9.95
2018-10-18T02:54:05.414Z,9.98
2018-10-18T02:56:32.847Z,10.02
2018-10-18T02:59:03.122Z,9.95
2018-10-18T03:01:32.996Z,9.86
2018-10-18T03:04:00.798Z,9.76
2018-10-18T03:06:28.408Z,9.67
2018-10-18T03:08:56.585Z,9.62
2018-10-18T03:11:24.336Z,9.61
2018-10-18T03:13:51.712Z,9.58
2018-10-18T03:16:20.789Z,9.49
2018-10-18T03:18:50.503Z,9.47
2018-10-18T03:21:19.315Z,9.45
2018-10-18T03:23:48.978Z,9.43
2018-10-18T03:26:16.514Z,9.48
2018-10-18T03:28:44.929Z,9.50
2018-10-18T03:31:13.543Z,9.49
2018-10-18T03:33:41.015Z,9.47
2018-10-18T03:36:08.535Z,9.50
2018-10-18T03:38:36.215Z,9.50
2018-10-18T03:41:04.120Z,9.54
2018-10-18T03:43:32.122Z,9.59
2018-10-18T03:45:59.552Z,9.63
2018-10-18T03:48:30.740Z,9.62
2018-10-18T03:50:58.816Z,9.59
2018-10-18T03:53:28.515Z,9.54
2018-10-18T03:55:56.030Z,9.53
2018-10-18T03:58:23.402Z,9.49
2018-10-18T04:00:50.968Z,9.50
2018-10-18T04:03:19.413Z,9.54
2018-10-18T04:05:46.997Z,9.58
2018-10-18T04:08:14.536Z,9.61
2018-10-18T04:10:42.652Z,9.65
2018-10-18T04:13:11.432Z,9.64
2018-10-18T04:15:38.773Z,9.64
2018-10-18T04:18:06.673Z,9.64
2018-10-18T04:20:34.149Z,9.66
2018-10-18T04:23:04.859Z,9.68
2018-10-18T04:25:34.026Z,9.68
2018-10-18T04:28:06.697Z,9.71
2018-10-18T04:30:35.732Z,9.74
2018-10-18T04:33:04.890Z,9.79
2018-10-18T04:35:32.595Z,9.82
2018-10-18T04:38:00.159Z,9.81
2018-10-18T04:40:28.745Z,9.79
2018-10-18T04:42:56.316Z,9.75
2018-10-18T04:45:24.014Z,9.65
2018-10-18T04:47:53.051Z,9.55
2018-10-18T04:50:21.643Z,9.57
2018-10-18T04:52:53.319Z,9.55
2018-10-18T04:55:20.715Z,9.57
2018-10-18T04:57:48.066Z,9.58
2018-10-18T05:00:16.293Z,9.61
2018-10-18T05:02:44.342Z,9.60
2018-10-18T05:05:23.097Z,9.63
2018-10-18T05:07:50.493Z,9.65
2018-10-18T05:10:18.112Z,9.67
2018-10-18T05:12:45.648Z,9.68
2018-10-18T05:15:14.592Z,9.70
2018-10-18T05:17:43.167Z,9.79
2018-10-18T05:20:13.981Z,9.87
2018-10-18T05:22:42.520Z,9.88
2018-10-18T05:25:10.622Z,9.94
2018-10-18T05:27:39.433Z,9.98
2018-10-18T05:30:09.348Z,10.00
2018-10-18T05:32:38.840Z,10.04
2018-10-18T05:35:06.904Z,10.08
2018-10-18T05:37:46.711Z,10.15
2018-10-18T05:40:16.575Z,10.20
2018-10-18T05:42:45.142Z,10.23
2018-10-18T05:45:18.435Z,10.30
2018-10-18T05:47:47.439Z,10.36
2018-10-18T05:50:17.882Z,10.41
2018-10-18T05:52:49.730Z,10.48
2018-10-18T05:55:18.102Z,10.52
2018-10-18T05:57:52.908Z,10.59
2018-10-18T06:00:23.036Z,10.62
2018-10-18T06:02:51.413Z,10.65
2018-10-18T06:05:20.771Z,10.65
2018-10-18T06:07:54.037Z,10.64
2018-10-18T06:10:33.552Z,10.63
2018-10-18T06:13:02.556Z,10.63
2018-10-18T06:15:40.256Z,10.62
2018-10-18T06:18:09.960Z,10.62
2018-10-18T06:20:38.583Z,10.64
2018-10-18T06:23:06.940Z,10.68
2018-10-18T06:25:34.839Z,10.72
2018-10-18T06:28:02.819Z,10.77
2018-10-18T06:30:30.728Z,10.83
2018-10-18T06:32:59.064Z,10.92
2018-10-18T06:35:26.920Z,11.01
2018-10-18T06:37:55.538Z,11.11
2018-10-18T06:40:24.579Z,11.21
2018-10-18T06:42:53.164Z,11.28
2018-10-18T06:45:21.453Z,11.34
2018-10-18T06:47:51.128Z,11.40
2018-10-18T06:50:19.863Z,11.45
2018-10-18T06:52:47.502Z,11.48
2018-10-18T06:55:16.393Z,11.51
2018-10-18T06:57:45.545Z,11.53
2018-10-18T07:00:21.223Z,11.55
2018-10-18T07:02:49.165Z,11.60
2018-10-18T07:05:17.487Z,11.68
2018-10-18T07:07:46.400Z,11.79
2018-10-18T07:10:14.557Z,11.91
2018-10-18T07:12:43.017Z,12.00
2018-10-18T07:15:12.977Z,12.11
2018-10-18T07:17:41.816Z,12.19
2018-10-18T07:20:11.361Z,12.26
2018-10-18T07:22:39.558Z,12.29
2018-10-18T07:25:12.549Z,12.29
2018-10-18T07:27:41.446Z,12.35
2018-10-18T07:30:11.581Z,12.41
2018-10-18T07:32:39.702Z,12.46
2018-10-18T07:35:08.405Z,12.53
2018-10-18T07:37:35.999Z,12.68
2018-10-18T07:40:03.874Z,12.89
2018-10-18T07:42:31.289Z,13.05
2018-10-18T07:45:00.363Z,13.15
2018-10-18T07:47:28.446Z,13.27
2018-10-18T07:49:56.159Z,13.51
2018-10-18T07:52:23.703Z,13.82
2018-10-18T07:54:52.058Z,14.06
2018-10-18T07:57:20.042Z,14.20
2018-10-18T07:59:48.147Z,14.18
2018-10-18T08:02:16.277Z,14.08
2018-10-18T08:04:44.283Z,14.06
2018-10-18T08:07:13.861Z,14.08
2018-10-18T08:09:44.233Z,14.08
2018-10-18T08:12:13.026Z,14.02
2018-10-18T08:14:41.946Z,13.86
2018-10-18T08:17:10.786Z,13.84
2018-10-18T08:19:41.063Z,13.80
2018-10-18T08:22:09.728Z,13.83
2018-10-18T08:24:38.217Z,13.90
2018-10-18T08:27:06.847Z,13.82
2018-10-18T08:29:34.730Z,13.84
2018-10-18T08:32:04.311Z,13.81
2018-10-18T08:34:31.982Z,13.86
2018-10-18T08:37:00.732Z,13.94
2018-10-18T08:39:28.807Z,14.02
2018-10-18T08:41:56.606Z,14.17
2018-10-18T08:44:24.486Z,14.32
2018-10-18T08:46:52.828Z,14.59
2018-10-18T08:49:21.078Z,14.68
2018-10-18T08:51:48.964Z,14.64
2018-10-18T08:54:17.703Z,14.76
2018-10-18T08:57:20.763Z,14.78
2018-10-18T08:59:48.263Z,14.88
2018-10-18T09:02:15.774Z,14.77
2018-10-18T09:04:43.842Z,14.74
2018-10-18T09:07:11.412Z,14.86
2018-10-18T09:09:39.731Z,14.83
2018-10-18T09:12:07.333Z,14.99
2018-10-18T09:14:34.940Z,14.85
2018-10-18T09:17:02.937Z,14.96
2018-10-18T09:19:31.790Z,15.23
2018-10-18T09:21:59.997Z,15.45
2018-10-18T09:24:28.588Z,15.51
2018-10-18T09:26:56.197Z,15.86
2018-10-18T09:29:23.872Z,16.15
2018-10-18T09:31:52.113Z,16.25
2018-10-18T09:34:19.627Z,16.38
2018-10-18T09:36:47.064Z,16.69
2018-10-18T09:39:15.385Z,16.99
2018-10-18T09:41:43.871Z,17.03
2018-10-18T09:44:11.573Z,17.00
2018-10-18T09:46:39.143Z,17.30
2018-10-18T09:49:06.759Z,17.48
2018-10-18T09:51:34.844Z,17.67
2018-10-18T09:54:03.026Z,17.69
2018-10-18T09:56:31.251Z,17.58
2018-10-18T09:58:58.768Z,17.58
2018-10-18T10:01:32.184Z,17.46
2018-10-18T10:04:01.995Z,17.47
2018-10-18T10:06:31.272Z,17.91
2018-10-18T10:09:01.409Z,18.04
2018-10-18T10:11:30.109Z,18.18
2018-10-18T10:13:58.431Z,18.23
2018-10-18T10:16:26.542Z,18.39
2018-10-18T10:18:54.230Z,18.16
2018-10-18T10:21:22.049Z,18.31
2018-10-18T10:23:49.547Z,18.28
2018-10-18T10:26:17.041Z,18.23
2018-10-18T10:28:45.328Z,18.05
2018-10-18T10:31:13.333Z,18.04
2018-10-18T10:33:40.908Z,17.84
2018-10-18T10:36:08.581Z,17.86
2018-10-18T10:38:36.788Z,17.95
2018-10-18T10:41:04.692Z,18.00
2018-10-18T10:43:32.295Z,17.93
2018-10-18T10:45:59.967Z,17.89
2018-10-18T10:48:27.799Z,17.78
2018-10-18T10:50:55.757Z,17.81
2018-10-18T10:53:23.774Z,17.63
2018-10-18T10:55:52.474Z,17.54
2018-10-18T10:58:21.988Z,17.54
2018-10-18T11:01:09.389Z,17.25
2018-10-18T11:03:39.246Z,17.27
2018-10-18T11:06:09.118Z,17.39
2018-10-18T11:08:40.206Z,17.48
2018-10-18T11:11:11.408Z,17.05
2018-10-18T11:13:40.741Z,17.02
2018-10-18T11:16:11.337Z,16.89
2018-10-18T11:18:39.707Z,17.01
2018-10-18T11:21:08.435Z,17.02
2018-10-18T11:23:36.078Z,17.24
2018-10-18T11:26:03.924Z,17.13
2018-10-18T11:28:31.477Z,17.18
2018-10-18T11:31:00.702Z,17.20
2018-10-18T11:33:28.943Z,17.41
2018-10-18T11:35:56.836Z,17.16
2018-10-18T11:38:26.378Z,17.11
2018-10-18T11:40:56.559Z,17.35
2018-10-18T11:43:28.088Z,17.35
2018-10-18T11:45:58.720Z,17.50
2018-10-18T11:48:31.534Z,17.45
2018-10-18T11:51:01.234Z,17.48
2018-10-18T11:53:32.608Z,17.49
2018-10-18T11:56:00.928Z,17.45
2018-10-18T11:58:31.880Z,17.57
2018-10-18T12:01:01.178Z,17.31
2018-10-18T12:03:32.280Z,17.50
2018-10-18T12:06:01.102Z,17.50
2018-10-18T12:08:29.938Z,17.49
2018-10-18T12:11:00.238Z,17.38
2018-10-18T12:13:31.980Z,17.43
2018-10-18T12:16:01.949Z,17.42
2018-10-18T12:18:31.402Z,17.37
2018-10-18T12:21:00.016Z,17.31
2018-10-18T12:23:33.985Z,17.16
2018-10-18T12:26:08.377Z,17.08
2018-10-18T12:28:43.945Z,17.12
2018-10-18T12:31:17.720Z,17.17
2018-10-18T12:33:53.953Z,17.04
2018-10-18T12:36:26.589Z,17.16
2018-10-18T12:38:57.339Z,17.28
2018-10-18T12:41:26.978Z,17.20
2018-10-18T12:43:56.395Z,17.17
2018-10-18T12:46:27.482Z,17.17
2018-10-18T12:48:57.505Z,16.94
2018-10-18T12:51:26.844Z,16.90
2018-10-18T12:53:56.012Z,16.94
2018-10-18T12:56:26.317Z,16.81
2018-10-18T12:58:59.770Z,16.91
2018-10-18T13:01:36.795Z,17.13
2018-10-18T13:04:07.192Z,17.18
2018-10-18T13:06:37.848Z,17.30
2018-10-18T13:09:14.385Z,17.41
2018-10-18T13:11:46.028Z,17.44
2018-10-18T13:14:14.903Z,17.45
2018-10-18T13:16:44.307Z,17.37
2018-10-18T13:19:14.394Z,17.18
2018-10-18T13:21:45.724Z,16.95
2018-10-18T13:24:15.255Z,17.03
2018-10-18T13:26:46.143Z,16.92
2018-10-18T13:29:15.267Z,17.00
2018-10-18T13:31:44.317Z,17.12
2018-10-18T13:34:13.247Z,17.27
2018-10-18T13:36:42.266Z,17.51
2018-10-18T13:39:14.936Z,17.65
2018-10-18T13:41:45.174Z,17.84
2018-10-18T13:44:14.401Z,17.83
2018-10-18T13:46:43.357Z,17.81
2018-10-18T13:49:13.732Z,17.77
2018-10-18T13:51:42.190Z,17.78
2018-10-18T13:54:11.880Z,17.53
2018-10-18T13:56:41.049Z,17.38
2018-10-18T13:59:20.685Z,17.31
2018-10-18T14:01:50.198Z,17.37
2018-10-18T14:04:18.550Z,17.34
2018-10-18T14:06:48.090Z,17.34
2018-10-18T14:09:18.551Z,17.17
2018-10-18T14:11:48.955Z,17.28
2018-10-18T14:14:19.846Z,17.23
2018-10-18T14:16:57.537Z,17.25
2018-10-18T14:19:28.203Z,17.18
2018-10-18T14:21:58.568Z,17.19
2018-10-18T14:24:28.386Z,17.12
2018-10-18T14:26:57.264Z,17.04
2018-10-18T14:29:26.563Z,16.98
2018-10-18T14:31:54.981Z,16.91
2018-10-18T14:34:23.732Z,16.82
2018-10-18T14:36:53.259Z,16.80
2018-10-18T14:39:23.700Z,16.79
2018-10-18T14:41:53.423Z,16.82
2018-10-18T14:44:22.039Z,16.82
2018-10-18T14:46:52.832Z,16.82
2018-10-18T14:49:23.364Z,16.78
2018-10-18T14:51:52.069Z,16.80
2018-10-18T14:54:24.116Z,16.83
2018-10-18T14:56:53.125Z,16.83
2018-10-18T14:59:23.238Z,16.84
2018-10-18T15:01:54.724Z,16.82
2018-10-18T15:04:24.220Z,16.84
2018-10-18T15:06:53.090Z,16.86
2018-10-18T15:09:22.078Z,16.88
2018-10-18T15:11:51.627Z,16.88
2018-10-18T15:14:21.326Z,16.93
2018-10-18T15:16:52.215Z,16.97
2018-10-18T15:19:21.207Z,17.00
2018-10-18T15:21:49.363Z,16.96
2018-10-18T15:24:21.606Z,16.96
2018-10-18T15:26:53.396Z,16.94
2018-10-18T15:29:23.996Z,16.87
2018-10-18T15:31:55.362Z,16.80
2018-10-18T15:34:26.022Z,16.72
2018-10-18T15:36:59.101Z,16.65
2018-10-18T15:39:29.680Z,16.59
2018-10-18T15:42:03.084Z,16.54
2018-10-18T15:44:37.234Z,16.50
2018-10-18T15:47:08.049Z,16.46
2018-10-18T15:49:38.255Z,16.45
2018-10-18T15:52:16.760Z,16.44
2018-10-18T15:54:54.923Z,16.43
2018-10-18T15:57:25.295Z,16.38
2018-10-18T15:59:57.069Z,16.34
2018-10-18T16:02:28.998Z,16.31
2018-10-18T16:05:04.566Z,16.27
2018-10-18T16:07:34.329Z,16.17
2018-10-18T16:10:06.546Z,16.07
2018-10-18T16:12:36.316Z,16.03
2018-10-18T16:15:05.586Z,15.98
2018-10-18T16:17:34.249Z,15.92
2018-10-18T16:20:03.154Z,15.84
2018-10-18T16:22:33.795Z,15.80
2018-10-18T16:25:33.406Z,15.73
2018-10-18T16:28:01.733Z,15.66
2018-10-18T16:30:29.734Z,15.57
2018-10-18T16:32:59.526Z,15.53
2018-10-18T16:35:28.048Z,15.40
2018-10-18T16:37:56.697Z,15.30
2018-10-18T16:40:24.979Z,15.19
2018-10-18T16:42:53.902Z,15.08
2018-10-18T16:45:22.446Z,14.98
2018-10-18T16:47:50.549Z,14.81
2018-10-18T16:50:19.452Z,14.62
2018-10-18T16:52:48.593Z,14.57
2018-10-18T16:55:18.164Z,14.46
2018-10-18T16:57:46.016Z,14.37
2018-10-18T17:00:56.055Z,14.33
2018-10-18T17:03:28.084Z,14.26
2018-10-18T17:05:57.333Z,14.23
2018-10-18T17:08:25.452Z,14.18
2018-10-18T17:10:56.048Z,14.17
2018-10-18T17:13:23.822Z,14.15
2018-10-18T17:15:52.472Z,14.11
2018-10-18T17:18:20.198Z,14.13
2018-10-18T17:20:47.855Z,14.16
2018-10-18T17:23:15.532Z,14.14
2018-10-18T17:25:43.558Z,14.11
2018-10-18T17:28:11.883Z,14.10
2018-10-18T17:30:40.518Z,14.09
2018-10-18T17:33:08.344Z,14.04
2018-10-18T17:35:36.339Z,13.98
2018-10-18T17:38:03.945Z,13.93
2018-10-18T17:40:32.602Z,13.88
2018-10-18T17:43:06.312Z,13.90
2018-10-18T17:45:34.128Z,13.85
2018-10-18T17:48:02.322Z,13.82
2018-10-18T17:50:36.539Z,13.76
2018-10-18T17:53:06.507Z,13.73
2018-10-18T17:55:34.363Z,13.67
2018-10-18T17:58:01.992Z,13.65
2018-10-18T18:00:37.479Z,13.59
2018-10-18T18:03:05.408Z,13.54
2018-10-18T18:05:33.580Z,13.60
2018-10-18T18:08:02.614Z,13.60
2018-10-18T18:13:09.682Z,13.61
2018-10-18T18:15:37.519Z,13.62
2018-10-18T18:18:10.543Z,13.64
2018-10-18T18:20:44.271Z,13.68
2018-10-18T18:23:14.215Z,13.63
2018-10-18T18:25:46.003Z,13.63
2018-10-18T18:28:15.737Z,13.59
2018-10-18T18:30:44.345Z,13.62
2018-10-18T18:33:13.176Z,13.64
2018-10-18T18:35:49.690Z,13.65
2018-10-18T18:38:24.487Z,13.67
2018-10-18T18:41:30.196Z,13.62
2018-10-18T18:44:09.437Z,13.59
2018-10-18T18:46:38.736Z,13.60
2018-10-18T18:49:14.284Z,13.59
2018-10-18T18:51:49.472Z,13.54
2018-10-18T18:54:29.323Z,13.50
2018-10-18T18:57:00.482Z,13.47
2018-10-18T18:59:33.721Z,13.47
2018-10-18T19:02:25.242Z,13.48
2018-10-18T19:04:55.911Z,13.40
2018-10-18T19:07:25.186Z,13.34
2018-10-18T19:09:53.394Z,13.35
2018-10-18T19:12:22.313Z,13.32
2018-10-18T19:15:00.294Z,13.31
2018-10-18T19:17:41.690Z,13.29
2018-10-18T19:20:10.007Z,13.29
2018-10-18T19:22:39.974Z,13.30
2018-10-18T19:27:51.829Z,13.25
2018-10-18T19:30:27.974Z,13.27
2018-10-18T19:33:07.855Z,13.27
2018-10-18T19:35:44.288Z,13.27
2018-10-18T19:38:14.573Z,13.29
2018-10-18T19:40:42.274Z,13.30
2018-10-18T19:43:10.885Z,13.31
2018-10-18T19:45:38.925Z,13.33
2018-10-18T19:48:07.711Z,13.31
2018-10-18T19:50:38.565Z,13.29
2018-10-18T19:53:11.109Z,13.30
2018-10-18T19:55:40.249Z,13.28
2018-10-18T19:58:08.716Z,13.28
2018-10-18T20:00:36.960Z,13.28
2018-10-18T20:03:07.471Z,13.29
2018-10-18T20:05:35.268Z,13.27
2018-10-18T20:08:05.458Z,13.31
2018-10-18T20:13:46.298Z,13.34
2018-10-18T20:16:20.264Z,13.34
2018-10-18T20:18:50.178Z,13.30
2018-10-18T20:21:22.764Z,13.31
2018-10-18T20:23:57.563Z,13.32
2018-10-18T20:26:29.794Z,13.32
2018-10-18T20:29:03.337Z,13.35
2018-10-18T20:31:32.364Z,13.33
2018-10-18T20:33:59.930Z,13.36
2018-10-18T20:36:27.772Z,13.36
2018-10-18T20:39:07.921Z,13.36
2018-10-18T20:41:43.084Z,13.35
2018-10-18T20:44:19.666Z,13.34
2018-10-18T20:46:54.639Z,13.34
2018-10-18T20:52:15.197Z,13.35
2018-10-18T20:54:43.813Z,13.35
2018-10-18T20:57:14.159Z,13.33
2018-10-18T20:59:41.663Z,13.30
2018-10-18T21:02:10.073Z,13.31
2018-10-18T21:04:37.577Z,13.26
2018-10-18T21:07:05.191Z,13.25
2018-10-18T21:09:33.696Z,13.24
2018-10-18T21:12:01.842Z,13.25
2018-10-18T21:14:29.561Z,13.21
2018-10-18T21:16:58.474Z,13.22
2018-10-18T21:19:26.567Z,13.20
2018-10-18T21:21:55.353Z,13.24
2018-10-18T21:24:25.091Z,13.24
2018-10-18T21:26:53.466Z,13.25
2018-10-18T21:29:22.003Z,13.25
2018-10-18T21:31:49.665Z,13.20
2018-10-18T21:34:17.854Z,13.18
2018-10-18T21:36:46.224Z,13.18
2018-10-18T21:39:21.639Z,13.22
2018-10-18T21:41:49.170Z,13.16
2018-10-18T21:44:17.782Z,13.14
2018-10-18T21:46:46.752Z,13.15
2018-10-18T21:49:18.253Z,13.19
2018-10-18T21:51:47.762Z,13.13
2018-10-18T21:54:15.939Z,13.15
2018-10-18T21:56:44.376Z,13.17
2018-10-18T21:59:12.124Z,13.16
2018-10-18T22:01:40.304Z,13.16
2018-10-18T22:04:08.846Z,13.15
2018-10-18T22:06:36.701Z,13.16
2018-10-18T22:09:06.511Z,13.12
2018-10-18T22:11:36.282Z,13.10
2018-10-18T22:14:04.632Z,13.13
2018-10-18T22:16:32.395Z,13.10
2018-10-18T22:18:59.876Z,13.11
2018-10-18T22:21:27.346Z,13.08
2018-10-18T22:23:54.907Z,13.10
2018-10-18T22:26:22.713Z,13.10
2018-10-18T22:28:50.605Z,13.10
2018-10-18T22:31:18.342Z,13.10
2018-10-18T22:33:47.032Z,13.11
2018-10-18T22:36:16.843Z,13.06
2018-10-18T22:38:46.610Z,13.02
2018-10-18T22:41:16.386Z,12.98
2018-10-18T22:43:44.513Z,12.99
2018-10-18T22:46:12.536Z,12.95
2018-10-18T22:48:41.038Z,12.99
2018-10-18T22:51:09.746Z,13.02
2018-10-18T22:53:37.532Z,13.03
2018-10-18T22:56:07.412Z,12.99
2018-10-18T22:58:36.235Z,13.00
2018-10-18T23:01:07.044Z,12.99
2018-10-18T23:03:35.058Z,13.02
2018-10-18T23:06:04.057Z,12.99
2018-10-18T23:08:35.512Z,12.97
2018-10-18T23:11:03.595Z,12.96
2018-10-18T23:13:32.671Z,12.95
2018-10-18T23:16:08.351Z,12.95
2018-10-18T23:18:36.388Z,12.96
2018-10-18T23:21:05.043Z,12.91
2018-10-18T23:23:34.312Z,12.89
2018-10-18T23:26:02.947Z,12.87
2018-10-18T23:28:30.525Z,12.89
2018-10-18T23:30:59.021Z,12.85
2018-10-18T23:33:26.468Z,12.82
2018-10-18T23:35:54.914Z,12.78
2018-10-18T23:38:24.291Z,12.80
2018-10-18T23:40:52.247Z,12.78
2018-10-18T23:43:20.410Z,12.79
2018-10-18T23:45:52.863Z,12.76
2018-10-18T23:48:21.714Z,12.77
2018-10-18T23:50:50.631Z,12.79
2018-10-18T23:53:18.730Z,12.76
2018-10-18T23:55:47.396Z,12.78
2018-10-18T23:58:14.835Z,12.78
